Time;durP1;ratioP1;P1;durP2;ratioP2;P2;SDS_P1;SDS_P2;PMS_P1;PMS_P2;Temp;Humidity;BMP_temperature;BMP_pressure;BME280_temperature;BME280_humidity;BME280_pressure;Samples;Min_cycle;Max_cycle;Signal;HPM_P1;HPM_P2
2023/07/25 00:00:30;;;;;;;4.07;2.15;;;;;;;;;;12979828;22;20371;-88
2023/07/25 00:05:32;;;;;;;4.20;2.20;;;;;;;;;;12979962;22;20401;-88
2023/07/25 00:10:34;;;;;;;5.10;2.33;;;;;;;;;;12980943;22;20436;-88
2023/07/25 00:15:38;;;;;;;4.28;2.65;;;;;;;;;;12980488;22;20390;-88
2023/07/25 00:20:41;;;;;;;7.60;2.72;;;;;;;;;;12980973;22;20897;-89
2023/07/25 00:25:43;;;;;;;5.63;3.00;;;;;;;;;;12980222;22;20359;-89
2023/07/25 00:30:47;;;;;;;4.15;2.70;;;;;;;;;;12979250;22;20362;-87
2023/07/25 00:35:53;;;;;;;3.90;2.50;;;;;;;;;;12980462;22;20383;-88
2023/07/25 00:40:55;;;;;;;3.97;2.10;;;;;;;;;;12982248;22;20424;-88
2023/07/25 00:45:59;;;;;;;3.53;2.10;;;;;;;;;;12979056;22;20397;-88
2023/07/25 00:51:01;;;;;;;3.67;1.90;;;;;;;;;;12978166;22;20383;-88
2023/07/25 00:56:06;;;;;;;5.32;2.22;;;;;;;;;;12978185;22;20920;-88
2023/07/25 01:01:10;;;;;;;5.47;2.30;;;;;;;;;;12979275;22;20822;-89
2023/07/25 01:06:14;;;;;;;4.90;2.40;;;;;;;;;;12979865;22;20371;-89
2023/07/25 01:11:16;;;;;;;4.50;2.17;;;;;;;;;;12979835;22;20676;-87
2023/07/25 01:16:23;;;;;;;5.37;2.07;;;;;;;;;;12980028;22;20382;-88
2023/07/25 01:21:26;;;;;;;7.05;2.55;;;;;;;;;;12978679;22;20445;-86
2023/07/25 01:26:30;;;;;;;4.78;2.35;;;;;;;;;;12980454;22;20503;-86
2023/07/25 01:31:32;;;;;;;7.38;2.78;;;;;;;;;;12979651;22;20359;-86
2023/07/25 01:36:34;;;;;;;4.47;2.45;;;;;;;;;;12999669;22;21058;-86
2023/07/25 01:41:39;;;;;;;4.10;2.88;;;;;;;;;;12979495;22;20686;-85
2023/07/25 01:46:41;;;;;;;7.18;3.05;;;;;;;;;;12978173;22;20366;-85
2023/07/25 01:51:44;;;;;;;5.72;3.33;;;;;;;;;;12977877;22;20409;-86
2023/07/25 01:56:48;;;;;;;7.77;3.33;;;;;;;;;;12980396;22;20436;-88
2023/07/25 02:01:50;;;;;;;9.48;3.50;;;;;;;;;;12980277;22;20371;-89
2023/07/25 02:06:53;;;;;;;6.50;3.58;;;;;;;;;;12983837;22;20420;-88
2023/07/25 02:11:58;;;;;;;6.33;3.47;;;;;;;;;;12985173;22;20442;-89
2023/07/25 02:17:00;;;;;;;5.70;3.25;;;;;;;;;;12984187;22;20464;-87
2023/07/25 02:22:03;;;;;;;7.65;3.55;;;;;;;;;;12984869;22;20354;-88
2023/07/25 02:27:07;;;;;;;7.00;3.70;;;;;;;;;;12986245;22;20842;-89
2023/07/25 02:32:09;;;;;;;6.70;3.90;;;;;;;;;;12984059;22;20416;-88
2023/07/25 02:37:12;;;;;;;10.23;4.25;;;;;;;;;;12983735;22;20386;-88
2023/07/25 02:42:15;;;;;;;5.60;3.35;;;;;;;;;;12983845;22;20367;-88
2023/07/25 02:47:18;;;;;;;5.97;3.75;;;;;;;;;;12985051;22;20440;-89
2023/07/25 02:52:20;;;;;;;6.63;3.20;;;;;;;;;;12983844;22;20359;-88
2023/07/25 02:57:24;;;;;;;5.07;2.57;;;;;;;;;;12984254;22;20683;-88
2023/07/25 03:02:26;;;;;;;5.97;2.43;;;;;;;;;;12982974;22;20421;-89
2023/07/25 03:07:29;;;;;;;6.70;2.85;;;;;;;;;;12982941;22;20367;-89
2023/07/25 03:12:32;;;;;;;6.93;2.60;;;;;;;;;;12983374;22;20472;-87
2023/07/25 03:17:34;;;;;;;6.07;2.92;;;;;;;;;;12982038;22;20436;-88
2023/07/25 03:22:37;;;;;;;4.00;2.47;;;;;;;;;;12982329;22;20366;-89
2023/07/25 03:27:41;;;;;;;8.15;3.20;;;;;;;;;;12982613;22;20367;-89
2023/07/25 03:32:43;;;;;;;5.47;3.10;;;;;;;;;;12983009;22;20469;-89
2023/07/25 03:37:45;;;;;;;5.38;3.63;;;;;;;;;;12980211;22;20382;-88
2023/07/25 03:42:49;;;;;;;5.23;3.00;;;;;;;;;;13004368;22;20435;-88
2023/07/25 03:47:51;;;;;;;7.88;3.80;;;;;;;;;;13000494;22;20797;-85
2023/07/25 03:52:54;;;;;;;6.47;3.72;;;;;;;;;;12981797;22;20473;-89
2023/07/25 03:57:57;;;;;;;7.70;3.47;;;;;;;;;;12982727;22;20379;-89
2023/07/25 04:02:59;;;;;;;5.65;3.67;;;;;;;;;;12983227;22;20358;-89
2023/07/25 04:08:02;;;;;;;4.43;3.03;;;;;;;;;;12981815;22;20363;-88
2023/07/25 04:13:06;;;;;;;5.50;3.10;;;;;;;;;;12982263;22;20362;-88
2023/07/25 04:18:09;;;;;;;7.43;2.95;;;;;;;;;;12981606;22;20378;-88
2023/07/25 04:23:11;;;;;;;6.80;3.58;;;;;;;;;;12981781;22;20400;-89
2023/07/25 04:28:15;;;;;;;5.73;3.20;;;;;;;;;;12982591;22;20429;-89
2023/07/25 04:33:17;;;;;;;6.83;3.03;;;;;;;;;;12982885;22;20355;-89
2023/07/25 04:38:20;;;;;;;3.78;1.60;;;;;;;;;;12981287;22;20440;-87
2023/07/25 04:43:24;;;;;;;3.92;1.75;;;;;;;;;;12980470;22;20363;-86
2023/07/25 04:48:26;;;;;;;7.70;1.30;;;;;;;;;;12979372;22;20374;-86
2023/07/25 04:53:29;;;;;;;1.80;0.88;;;;;;;;;;12979179;22;20363;-87
2023/07/25 04:58:32;;;;;;;2.30;1.00;;;;;;;;;;12979523;22;20394;-88
2023/07/25 05:03:35;;;;;;;2.60;1.20;;;;;;;;;;12980930;22;20428;-87
2023/07/25 05:08:37;;;;;;;4.28;1.40;;;;;;;;;;12983043;22;20691;-87
2023/07/25 05:13:41;;;;;;;4.73;1.60;;;;;;;;;;12982997;22;20424;-89
2023/07/25 05:18:43;;;;;;;5.30;1.67;;;;;;;;;;12980130;22;20519;-88
2023/07/25 05:23:45;;;;;;;3.92;1.50;;;;;;;;;;12980460;22;20363;-88
2023/07/25 05:28:49;;;;;;;3.27;1.37;;;;;;;;;;12979973;22;20417;-88
2023/07/25 05:33:51;;;;;;;3.67;1.30;;;;;;;;;;12980673;22;20429;-88
2023/07/25 05:38:54;;;;;;;2.55;1.30;;;;;;;;;;12982117;22;20420;-88
2023/07/25 05:43:57;;;;;;;2.20;1.38;;;;;;;;;;12984885;22;20615;-88
2023/07/25 05:49:00;;;;;;;2.65;1.30;;;;;;;;;;12983441;22;20362;-88
2023/07/25 05:54:02;;;;;;;4.33;1.50;;;;;;;;;;12984240;22;20367;-88
2023/07/25 05:59:06;;;;;;;5.22;1.65;;;;;;;;;;12983458;22;20370;-88
2023/07/25 06:04:08;;;;;;;4.47;1.73;;;;;;;;;;12974733;22;20359;-89
2023/07/25 06:09:11;;;;;;;3.75;2.05;;;;;;;;;;12997593;22;20408;-89
2023/07/25 06:14:15;;;;;;;6.10;2.60;;;;;;;;;;12975839;22;20362;-88
2023/07/25 06:19:17;;;;;;;5.07;2.13;;;;;;;;;;12975544;22;20358;-88
2023/07/25 06:24:20;;;;;;;6.30;2.00;;;;;;;;;;12975233;22;20363;-88
2023/07/25 06:29:24;;;;;;;4.93;2.25;;;;;;;;;;12975559;22;20378;-88
2023/07/25 06:34:26;;;;;;;3.95;2.10;;;;;;;;;;12977003;22;20371;-88
2023/07/25 06:39:28;;;;;;;5.32;2.30;;;;;;;;;;12997450;22;20375;-88
2023/07/25 06:44:32;;;;;;;5.90;2.20;;;;;;;;;;12974817;22;20363;-88
2023/07/25 06:49:34;;;;;;;4.43;2.33;;;;;;;;;;12974990;22;20432;-88
2023/07/25 06:54:38;;;;;;;4.25;2.10;;;;;;;;;;12974205;22;20375;-88
2023/07/25 06:59:42;;;;;;;6.20;3.00;;;;;;;;;;12975537;22;20745;-88
2023/07/25 07:04:44;;;;;;;6.18;2.95;;;;;;;;;;12974921;22;20742;-86
2023/07/25 07:09:46;;;;;;;8.70;3.28;;;;;;;;;;12973908;22;20370;-85
2023/07/25 07:14:50;;;;;;;6.57;3.22;;;;;;;;;;12975383;22;20428;-86
2023/07/25 07:19:54;;;;;;;5.72;3.15;;;;;;;;;;12994681;22;20432;-86
2023/07/25 07:24:57;;;;;;;7.95;3.13;;;;;;;;;;12976835;22;20366;-86
2023/07/25 07:30:00;;;;;;;7.60;3.45;;;;;;;;;;12980915;22;20417;-87
2023/07/25 07:35:03;;;;;;;9.60;3.57;;;;;;;;;;12982188;22;20386;-87
2023/07/25 07:40:07;;;;;;;8.48;3.10;;;;;;;;;;13002814;22;20503;-86
2023/07/25 07:45:11;;;;;;;6.78;3.30;;;;;;;;;;12981745;22;20362;-86
2023/07/25 07:50:13;;;;;;;5.57;2.80;;;;;;;;;;12981975;22;20363;-87
2023/07/25 07:55:16;;;;;;;5.27;2.57;;;;;;;;;;12980208;22;20379;-87
2023/07/25 08:00:20;;;;;;;6.40;2.80;;;;;;;;;;12980621;22;20424;-86
2023/07/25 08:05:23;;;;;;;5.32;2.30;;;;;;;;;;12981055;22;20363;-87
2023/07/25 08:10:25;;;;;;;5.67;2.73;;;;;;;;;;12982553;22;20737;-87
2023/07/25 08:15:29;;;;;;;6.50;3.10;;;;;;;;;;12980181;22;20436;-87
2023/07/25 08:20:31;;;;;;;4.30;2.60;;;;;;;;;;12980519;22;20444;-87
2023/07/25 08:25:34;;;;;;;9.13;4.07;;;;;;;;;;12980688;22;20428;-87
2023/07/25 08:30:37;;;;;;;6.38;3.72;;;;;;;;;;13001250;22;20916;-87
2023/07/25 08:35:40;;;;;;;7.90;3.92;;;;;;;;;;12982040;22;20753;-87
2023/07/25 08:40:42;;;;;;;7.13;3.70;;;;;;;;;;12978574;22;20420;-85
2023/07/25 08:45:49;;;;;;;6.20;3.33;;;;;;;;;;12976959;22;20931;-86
2023/07/25 08:50:53;;;;;;;8.77;3.57;;;;;;;;;;12978692;22;20428;-87
2023/07/25 08:55:57;;;;;;;9.37;3.97;;;;;;;;;;12995777;22;20378;-86
2023/07/25 09:01:00;;;;;;;6.68;3.25;;;;;;;;;;12973043;22;20440;-86
2023/07/25 09:06:03;;;;;;;7.32;3.03;;;;;;;;;;12995856;22;20420;-86
2023/07/25 09:11:08;;;;;;;6.67;3.60;;;;;;;;;;12975362;22;20912;-88
2023/07/25 09:16:12;;;;;;;5.97;3.63;;;;;;;;;;12974906;22;20440;-85
2023/07/25 09:21:16;;;;;;;5.88;3.30;;;;;;;;;;12975205;22;20734;-86
2023/07/25 09:26:21;;;;;;;5.23;3.13;;;;;;;;;;12973945;22;20363;-86
2023/07/25 09:31:26;;;;;;;11.25;4.50;;;;;;;;;;12976954;22;20416;-87
2023/07/25 09:36:30;;;;;;;7.93;3.55;;;;;;;;;;12976720;22;20378;-87
2023/07/25 09:41:36;;;;;;;6.65;3.50;;;;;;;;;;12969486;22;20416;-88
2023/07/25 09:46:40;;;;;;;6.50;3.83;;;;;;;;;;12972995;22;20827;-87
2023/07/25 09:51:58;;;;;;;7.60;4.77;;;;;;;;;;12974036;22;20770;-88
2023/07/25 09:57:01;;;;;;;9.30;5.20;;;;;;;;;;12975324;22;20383;-88
2023/07/25 10:02:05;;;;;;;10.68;5.57;;;;;;;;;;12971527;22;20362;-87
2023/07/25 10:07:09;;;;;;;8.00;5.53;;;;;;;;;;12975763;22;20651;-88
2023/07/25 10:12:13;;;;;;;9.07;4.72;;;;;;;;;;12974672;22;20370;-87
2023/07/25 10:17:16;;;;;;;5.78;4.05;;;;;;;;;;12976045;22;20491;-88
2023/07/25 10:22:33;;;;;;;10.90;4.23;;;;;;;;;;12977605;22;20460;-87
2023/07/25 10:27:35;;;;;;;5.60;3.45;;;;;;;;;;12980220;22;20689;-88
2023/07/25 10:32:47;;;;;;;5.03;2.70;;;;;;;;;;12979774;22;20362;-88
2023/07/25 10:37:50;;;;;;;4.77;2.90;;;;;;;;;;12979077;22;20475;-89
2023/07/25 10:42:54;;;;;;;4.43;3.30;;;;;;;;;;12978902;22;20360;-89
2023/07/25 10:47:59;;;;;;;4.55;2.08;;;;;;;;;;12977232;22;20366;-88
2023/07/25 10:53:15;;;;;;;4.80;2.17;;;;;;;;;;12999822;22;20358;-87
2023/07/25 10:58:17;;;;;;;4.10;1.98;;;;;;;;;;13000704;22;20404;-87
2023/07/25 11:03:28;;;;;;;4.65;2.05;;;;;;;;;;12975485;22;20432;-87
2023/07/25 11:08:31;;;;;;;4.73;2.20;;;;;;;;;;12989199;22;20715;-86
2023/07/25 11:13:34;;;;;;;3.45;2.22;;;;;;;;;;12972819;22;20424;-87
2023/07/25 11:18:50;;;;;;;3.30;1.77;;;;;;;;;;12975082;22;20440;-87
2023/07/25 11:24:03;;;;;;;2.87;1.90;;;;;;;;;;12973895;22;20374;-87
2023/07/25 11:29:07;;;;;;;6.55;2.80;;;;;;;;;;12973283;22;20502;-87
2023/07/25 11:34:12;;;;;;;3.67;2.00;;;;;;;;;;12973391;22;20432;-88
2023/07/25 11:39:15;;;;;;;2.92;1.83;;;;;;;;;;12973521;22;20939;-87
2023/07/25 11:44:19;;;;;;;4.47;1.90;;;;;;;;;;12979606;22;20374;-87
2023/07/25 11:49:23;;;;;;;3.20;2.10;;;;;;;;;;12972282;22;20383;-87
2023/07/25 11:54:26;;;;;;;4.17;2.50;;;;;;;;;;12974691;22;20378;-87
2023/07/25 11:59:29;;;;;;;4.78;2.13;;;;;;;;;;12973414;22;20440;-87
2023/07/25 12:04:32;;;;;;;3.60;2.25;;;;;;;;;;12972239;22;20382;-84
2023/07/25 12:09:36;;;;;;;5.73;2.43;;;;;;;;;;12990326;22;20367;-88
2023/07/25 12:14:38;;;;;;;2.97;1.57;;;;;;;;;;12970870;22;20862;-87
2023/07/25 12:19:42;;;;;;;3.67;1.90;;;;;;;;;;12971146;22;20448;-87
2023/07/25 12:24:44;;;;;;;3.97;2.08;;;;;;;;;;12975824;22;20374;-87
2023/07/25 12:29:46;;;;;;;3.63;1.87;;;;;;;;;;12973298;22;20374;-87
2023/07/25 12:34:50;;;;;;;3.27;1.90;;;;;;;;;;12973776;22;20363;-87
2023/07/25 12:39:53;;;;;;;3.60;2.05;;;;;;;;;;12976926;22;20946;-87
2023/07/25 12:45:01;;;;;;;6.47;2.80;;;;;;;;;;12976814;22;20464;-87
2023/07/25 12:50:05;;;;;;;3.88;2.70;;;;;;;;;;12977826;22;20416;-87
2023/07/25 12:55:09;;;;;;;3.63;2.63;;;;;;;;;;12978991;22;20827;-87
2023/07/25 13:00:12;;;;;;;4.30;2.80;;;;;;;;;;12977889;22;20940;-88
2023/07/25 13:05:16;;;;;;;6.68;3.40;;;;;;;;;;12974563;22;20422;-87
2023/07/25 13:10:19;;;;;;;4.65;2.80;;;;;;;;;;12975127;22;20397;-87
2023/07/25 13:15:21;;;;;;;5.43;3.10;;;;;;;;;;12969939;22;20374;-86
2023/07/25 13:20:25;;;;;;;6.25;3.30;;;;;;;;;;12971351;22;20382;-88
2023/07/25 13:25:27;;;;;;;4.90;2.90;;;;;;;;;;12973462;22;20436;-87
2023/07/25 13:30:29;;;;;;;6.83;2.80;;;;;;;;;;12978167;22;20401;-87
2023/07/25 13:35:33;;;;;;;3.42;2.75;;;;;;;;;;12976806;22;20366;-87
2023/07/25 13:40:36;;;;;;;6.37;2.60;;;;;;;;;;12977567;22;20382;-88
2023/07/25 13:45:40;;;;;;;3.37;2.50;;;;;;;;;;12976147;22;20363;-87
2023/07/25 13:50:44;;;;;;;9.23;2.93;;;;;;;;;;12977135;22;20424;-87
2023/07/25 13:55:46;;;;;;;6.18;2.88;;;;;;;;;;12971383;22;20366;-86
2023/07/25 14:00:48;;;;;;;5.18;2.58;;;;;;;;;;12970690;22;20386;-87
2023/07/25 14:05:52;;;;;;;4.95;2.58;;;;;;;;;;12974088;22;20370;-88
2023/07/25 14:10:55;;;;;;;5.88;2.53;;;;;;;;;;12974223;22;20444;-87
2023/07/25 14:15:59;;;;;;;4.67;2.70;;;;;;;;;;12991903;22;20400;-88
2023/07/25 14:21:02;;;;;;;5.57;3.00;;;;;;;;;;12977942;22;20390;-92
2023/07/25 14:26:05;;;;;;;4.30;2.80;;;;;;;;;;12977191;22;20405;-91
2023/07/25 14:31:07;;;;;;;4.77;2.30;;;;;;;;;;12975672;22;20420;-92
2023/07/25 14:36:11;;;;;;;6.27;2.50;;;;;;;;;;12983552;22;20393;-91
2023/07/25 14:41:19;;;;;;;4.47;2.70;;;;;;;;;;12982706;22;20379;-91
2023/07/25 14:46:22;;;;;;;8.50;2.70;;;;;;;;;;12976217;22;20424;-89
2023/07/25 14:51:26;;;;;;;6.93;3.47;;;;;;;;;;12972511;22;20367;-89
2023/07/25 14:56:28;;;;;;;4.75;2.70;;;;;;;;;;12979625;22;20382;-88
2023/07/25 15:01:30;;;;;;;6.07;2.90;;;;;;;;;;12978553;22;20382;-90
2023/07/25 15:06:34;;;;;;;5.65;3.22;;;;;;;;;;12977994;22;20366;-88
2023/07/25 15:11:37;;;;;;;4.63;2.80;;;;;;;;;;12978337;22;20363;-88
2023/07/25 15:16:39;;;;;;;4.82;3.17;;;;;;;;;;12980056;22;20363;-88
2023/07/25 15:21:43;;;;;;;4.60;2.92;;;;;;;;;;12978471;22;20428;-88
2023/07/25 15:26:45;;;;;;;6.40;3.00;;;;;;;;;;12980384;22;20359;-87
2023/07/25 15:31:51;;;;;;;5.10;2.93;;;;;;;;;;12979648;22;20367;-88
2023/07/25 15:36:54;;;;;;;5.10;2.67;;;;;;;;;;12979562;22;20827;-88
2023/07/25 15:41:58;;;;;;;5.72;3.05;;;;;;;;;;12981085;22;20355;-88
2023/07/25 15:47:02;;;;;;;6.80;3.30;;;;;;;;;;12981900;22;20404;-90
2023/07/25 15:52:06;;;;;;;7.57;3.50;;;;;;;;;;12971535;22;20699;-90
2023/07/25 15:57:09;;;;;;;5.20;3.10;;;;;;;;;;12947284;22;20425;-92
2023/07/25 16:02:11;;;;;;;7.22;3.15;;;;;;;;;;12973251;22;20379;-90
2023/07/25 16:07:15;;;;;;;5.32;2.90;;;;;;;;;;12987577;22;20429;-90
2023/07/25 16:12:17;;;;;;;5.40;2.90;;;;;;;;;;12975741;22;20370;-91
2023/07/25 16:17:20;;;;;;;5.22;2.90;;;;;;;;;;12975712;22;20375;-90
2023/07/25 16:22:23;;;;;;;5.13;3.07;;;;;;;;;;12972843;22;20827;-91
2023/07/25 16:27:26;;;;;;;4.75;2.90;;;;;;;;;;12971550;22;20444;-91
2023/07/25 16:32:28;;;;;;;6.38;2.95;;;;;;;;;;12970127;22;20968;-92
2023/07/25 16:37:32;;;;;;;5.03;3.10;;;;;;;;;;12973150;22;20390;-91
2023/07/25 16:42:35;;;;;;;6.13;2.90;;;;;;;;;;12972776;22;20670;-90
2023/07/25 16:47:37;;;;;;;5.03;2.78;;;;;;;;;;12970333;22;20450;-89
2023/07/25 16:52:41;;;;;;;5.13;3.00;;;;;;;;;;12968606;22;20464;-89
2023/07/25 16:57:43;;;;;;;5.00;2.80;;;;;;;;;;12971310;22;20375;-90
2023/07/25 17:02:45;;;;;;;5.27;3.03;;;;;;;;;;12968584;22;20378;-84
2023/07/25 17:07:49;;;;;;;5.90;3.30;;;;;;;;;;12964449;22;20912;-84
2023/07/25 17:12:51;;;;;;;5.40;2.67;;;;;;;;;;12965178;22;20375;-91
2023/07/25 17:17:54;;;;;;;4.72;2.63;;;;;;;;;;12970495;22;20378;-91
2023/07/25 17:22:57;;;;;;;3.38;2.35;;;;;;;;;;12971312;22;20900;-91
2023/07/25 17:28:00;;;;;;;5.82;2.03;;;;;;;;;;12971519;22;20401;-90
2023/07/25 17:33:02;;;;;;;4.45;1.92;;;;;;;;;;12972303;22;20362;-90
2023/07/25 17:38:07;;;;;;;4.22;2.28;;;;;;;;;;12972269;22;20370;-90
2023/07/25 17:43:10;;;;;;;4.57;2.20;;;;;;;;;;12977126;22;20404;-90
2023/07/25 17:48:13;;;;;;;5.70;2.30;;;;;;;;;;12979982;22;20830;-90
2023/07/25 17:53:17;;;;;;;7.35;2.47;;;;;;;;;;12981910;22;20416;-90
2023/07/25 17:58:19;;;;;;;4.68;2.40;;;;;;;;;;12980862;22;20383;-91
2023/07/25 18:03:22;;;;;;;4.93;2.40;;;;;;;;;;12981617;22;20404;-90
2023/07/25 18:08:26;;;;;;;6.37;2.80;;;;;;;;;;12980564;22;20374;-90
2023/07/25 18:13:28;;;;;;;4.75;2.40;;;;;;;;;;12980282;22;20378;-90
2023/07/25 18:18:30;;;;;;;4.95;2.53;;;;;;;;;;12978785;22;20386;-90
2023/07/25 18:23:34;;;;;;;6.10;2.23;;;;;;;;;;12979079;22;20374;-90
2023/07/25 18:28:37;;;;;;;7.28;2.58;;;;;;;;;;12974740;22;20846;-89
2023/07/25 18:33:39;;;;;;;6.67;3.43;;;;;;;;;;12976510;22;20618;-89
2023/07/25 18:38:43;;;;;;;6.07;3.03;;;;;;;;;;12976513;22;20420;-89
2023/07/25 18:43:45;;;;;;;10.17;3.90;;;;;;;;;;12978012;22;20412;-89
2023/07/25 18:48:48;;;;;;;7.07;2.97;;;;;;;;;;12975242;22;20451;-88
2023/07/25 18:53:52;;;;;;;9.07;4.10;;;;;;;;;;12976498;22;20812;-88
2023/07/25 18:58:54;;;;;;;10.75;3.38;;;;;;;;;;12976566;22;20448;-88
2023/07/25 19:03:57;;;;;;;6.88;3.58;;;;;;;;;;12974078;22;20375;-87
2023/07/25 19:09:00;;;;;;;6.30;3.50;;;;;;;;;;12969041;22;20370;-87
2023/07/25 19:14:03;;;;;;;6.90;3.75;;;;;;;;;;12972749;22;20382;-88
2023/07/25 19:19:05;;;;;;;8.38;4.45;;;;;;;;;;12975569;22;20432;-89
2023/07/25 19:24:08;;;;;;;9.63;3.60;;;;;;;;;;12975428;22;20394;-88
2023/07/25 19:29:11;;;;;;;8.53;3.60;;;;;;;;;;12972996;22;20436;-87
2023/07/25 19:34:14;;;;;;;7.50;3.65;;;;;;;;;;12973398;22;20374;-88
2023/07/25 19:39:18;;;;;;;8.52;3.13;;;;;;;;;;12977255;22;20444;-88
2023/07/25 19:44:20;;;;;;;6.82;3.28;;;;;;;;;;12975356;22;20741;-88
2023/07/25 19:49:23;;;;;;;7.72;3.47;;;;;;;;;;12974897;22;20428;-88
2023/07/25 19:54:26;;;;;;;8.98;3.30;;;;;;;;;;12975761;22;20370;-87
2023/07/25 19:59:29;;;;;;;7.95;3.70;;;;;;;;;;12974143;22;20756;-88
2023/07/25 20:04:31;;;;;;;7.03;3.45;;;;;;;;;;12974938;22;20583;-88
2023/07/25 20:09:35;;;;;;;8.73;3.30;;;;;;;;;;12975484;22;20444;-87
2023/07/25 20:14:37;;;;;;;6.22;3.25;;;;;;;;;;12973628;22;20437;-88
2023/07/25 20:19:39;;;;;;;5.75;3.25;;;;;;;;;;12993234;22;20386;-89
2023/07/25 20:24:43;;;;;;;7.67;3.87;;;;;;;;;;12973836;22;20385;-89
2023/07/25 20:29:46;;;;;;;8.20;3.63;;;;;;;;;;12973509;22;20405;-89
2023/07/25 20:34:48;;;;;;;9.47;3.67;;;;;;;;;;12971102;22;20440;-86
2023/07/25 20:39:53;;;;;;;9.60;3.80;;;;;;;;;;12975461;22;20383;-87
2023/07/25 20:44:55;;;;;;;9.20;3.58;;;;;;;;;;12974439;22;20439;-86
2023/07/25 20:49:58;;;;;;;8.38;3.80;;;;;;;;;;12973174;22;20448;-89
2023/07/25 20:55:02;;;;;;;6.90;3.17;;;;;;;;;;12972545;22;20374;-88
2023/07/25 21:00:05;;;;;;;5.57;2.90;;;;;;;;;;12975625;22;20375;-87
2023/07/25 21:05:09;;;;;;;3.78;2.60;;;;;;;;;;12976916;22;20379;-87
2023/07/25 21:10:13;;;;;;;3.87;2.60;;;;;;;;;;12948980;22;20379;-90
2023/07/25 21:15:15;;;;;;;3.10;2.40;;;;;;;;;;12993611;22;20436;-89
2023/07/25 21:20:18;;;;;;;5.13;2.53;;;;;;;;;;12981850;22;20382;-89
2023/07/25 21:25:21;;;;;;;4.30;2.47;;;;;;;;;;12980985;22;20363;-89
2023/07/25 21:30:24;;;;;;;3.05;2.47;;;;;;;;;;13002190;22;20366;-89
2023/07/25 21:35:26;;;;;;;4.47;2.77;;;;;;;;;;12983668;22;20401;-89
2023/07/25 21:40:30;;;;;;;3.83;2.40;;;;;;;;;;12984095;22;20436;-87
2023/07/25 21:45:33;;;;;;;4.60;3.17;;;;;;;;;;12983755;22;20897;-88
2023/07/25 21:50:35;;;;;;;3.85;2.05;;;;;;;;;;12983925;22;20405;-87
2023/07/25 21:55:39;;;;;;;3.97;1.90;;;;;;;;;;13004419;22;20358;-87
2023/07/25 22:00:41;;;;;;;3.20;1.97;;;;;;;;;;12983523;22;20382;-87
2023/07/25 22:05:44;;;;;;;3.67;1.60;;;;;;;;;;12983808;22;20428;-89
2023/07/25 22:10:48;;;;;;;4.07;1.83;;;;;;;;;;12984523;22;20363;-88
2023/07/25 22:15:51;;;;;;;3.08;1.83;;;;;;;;;;12983125;22;20421;-89
2023/07/25 22:20:53;;;;;;;3.10;1.80;;;;;;;;;;12985474;22;20378;-89
2023/07/25 22:26:03;;;;;;;4.45;1.83;;;;;;;;;;12987693;22;20367;-89
2023/07/25 22:31:06;;;;;;;2.95;2.22;;;;;;;;;;12988217;22;20366;-88
2023/07/25 22:36:08;;;;;;;3.63;2.30;;;;;;;;;;12987772;22;20354;-88
2023/07/25 22:41:12;;;;;;;3.10;1.90;;;;;;;;;;12984945;22;20416;-88
2023/07/25 22:46:14;;;;;;;1.83;1.63;;;;;;;;;;12987663;22;20421;-88
2023/07/25 22:51:16;;;;;;;2.88;1.80;;;;;;;;;;12986819;22;20370;-88
2023/07/25 22:56:20;;;;;;;2.27;1.47;;;;;;;;;;12987871;22;20362;-88
2023/07/25 23:01:23;;;;;;;3.10;1.57;;;;;;;;;;12988528;22;20428;-89
2023/07/25 23:06:25;;;;;;;2.05;1.45;;;;;;;;;;12987189;22;20363;-90
2023/07/25 23:11:30;;;;;;;3.95;1.90;;;;;;;;;;12986734;22;20402;-88
2023/07/25 23:16:32;;;;;;;3.10;2.00;;;;;;;;;;12987733;22;20745;-88
2023/07/25 23:21:35;;;;;;;4.70;2.20;;;;;;;;;;12986922;22;20444;-86
2023/07/25 23:26:38;;;;;;;3.35;2.25;;;;;;;;;;12986576;22;20457;-90
2023/07/25 23:31:41;;;;;;;4.10;2.08;;;;;;;;;;12986747;22;20436;-87
2023/07/25 23:36:43;;;;;;;4.03;2.20;;;;;;;;;;12986194;22;20358;-88
2023/07/25 23:41:47;;;;;;;7.03;2.50;;;;;;;;;;12987129;22;20383;-88
2023/07/25 23:46:49;;;;;;;2.88;2.13;;;;;;;;;;12986402;22;20424;-88
2023/07/25 23:51:51;;;;;;;4.03;2.28;;;;;;;;;;12986371;22;20397;-88
2023/07/25 23:56:55;;;;;;;3.13;2.10;;;;;;;;;;12986983;22;20583;-87
